Dillingham, AK (99576)

8:38 PM AKST on December 28, 2014 (GMT -0900)
Dillingham | Change Station
CLOSE
Current Station
Airport
Location: Dillingham,
Elevation: 95 ft
Nearby Weather Stations
Active Advisory: High Wind Watch

Elev 95 ft 59.04 °N, 158.51 °W | Updated 52 minutes ago

Light Rain
Light Rain
37 °F
Feels Like 28 °F
N
17
Wind Variable Wind from NE
Gusts 25 mph

Today
High -- | Low -- °F
--% Chance of Precip.
Yesterday
High -- | Low -- °F
Precip. -- in
10:28 AM 4:42 PM
First Quarter, 55% visible
Pressure 29.73 in
Visibility 10.0 miles
Clouds Overcast 3000 ft
Windchill 28 °F
Dew Point 34 °F
Humidity 87%
Rainfall 0.27 in
Snow Depth Not available.
UV 0 out of 12
Pollen Not available.
Air Quality Not available.
Flu Activity Not available.
METAR PADL 290446Z 05015G22KT 10SM -RA OVC030 03/01 A2973

More Conditions Fewer Conditions

Pressure 29.73 in
Visibility 10.0 miles
Clouds Overcast 3000 ft
Windchill 28 °F
Dew Point 34 °F
Humidity 87%
Rainfall 0.27 in
Snow Depth Not available.
UV 0 out of 12
Pollen Not available.
Air Quality Not available.
Flu Activity Not available.
METAR PADL 290446Z 05015G22KT 10SM -RA OVC030 03/01 A2973

More Conditions Fewer Conditions

10-Day Weather Forecast

Almanac

Astronomy

Dec. 28, 2014 Rise Set
Actual Time
Civil Twilight
Nautical Twilight
Astronomical Twilight
Moon
Length of Visible Light
Length of Day
Tomorrow will be .
, % of the Moon is Illuminated

Today's Extremes

State Highs State Lows

Community

WunderPhotos

Upload Photos

1,781,542 photos uploaded!

WunderBlogs® & News

Nearby

Air Quality

  Air Quality AQ Index Pollutant
Not available.

Snow Depth

Station Depth Elevation

Earthquake Activity

City Distance Mag. Time & Date
Minimum magnitude displayed is 2.5.

Coastal Water Temperatures

Place Temperature

Nearby Weather Stations